Observations for JERSEY AIRPORT, United Kingdom (EGJJ)

EGJJ 240850Z 29006KT 250V320 0300 R26/0275 FG SCT000 BKN001 14/14 Q1017 
EGJJ 240820Z 28007KT 0300 R26/0500 FG SCT000 BKN001 14/14 Q1017 
EGJJ 240750Z 27003KT 230V320 0900 R26/1700 FG FEW000 BKN001 14/14 Q1016 
EGJJ 240720Z 29006KT 1800 BR VCFG FEW000 SCT001 BKN002 14/14 Q1016  
EGJJ 240650Z 29008KT 1500 -RA BR VCFG FEW000 BKN001 14/14 Q1015 
EGJJ 240620Z 29007KT 0500 R26/0550 FG SCT000 OVC001 14/14 Q1015 
EGJJ 240550Z 24005KT 210V280 1400 R26/P2000 BR VCFG FEW000 BKN001 14/14 Q1016   
EGJJ 240520Z 24007KT 0350 R26/0600 FG SCT000 OVC001 14/14 Q1016 
EGJJ 240450Z 25012KT 0200 FG SCT000 OVC001 14/14 Q1016  
EGJJ 240420Z AUTO 26010KT 0150 0100 FG VV000 14/14 Q1015
EGJJ 240350Z AUTO 27008KT 1900 VV000 14/14 Q1014
EGJJ 240320Z AUTO 29009KT 3300 BR VV000 15/14 Q1014 
EGJJ 240250Z AUTO 28009KT 8000 HZ OVC002/// 15/14 Q1014 
EGJJ 240220Z AUTO 28010KT 9999 SCT004/// 15/14 Q1014
EGJJ 240150Z AUTO 28008KT 9999 NCD 15/14 Q1013  
EGJJ 240120Z AUTO 27008KT 9999 NCD 15/14 Q1014  
EGJJ 240050Z AUTO 27010KT 9999 NCD 16/14 Q1013  
EGJJ 240020Z AUTO 27008KT 9999 HZ NCD 16/15 Q1013   
EGJJ 232350Z AUTO 28008KT 9999 NCD 17/15 Q1013  
EGJJ 232320Z AUTO 26007KT 230V290 9999 NCD 17/15 Q1013  
EGJJ 232250Z AUTO 25011KT 9999 NCD 19/15 Q1013  
EGJJ 232220Z AUTO 10009KT 9999 NCD 20/17 Q1012  
EGJJ 232150Z AUTO 09009KT 9999 NCD 21/17 Q1011  
EGJJ 232120Z AUTO 09008KT 9999 NCD 20/17 Q1012  
EGJJ 232050Z AUTO 09009KT 9999 NCD 20/17 Q1012  
EGJJ 232020Z 09009KT CAVOK 20/17 Q1012  
EGJJ 231950Z 09008KT CAVOK 21/17 Q1011  
EGJJ 231920Z 09008KT CAVOK 21/17 Q1011  
EGJJ 231850Z 09007KT CAVOK 22/17 Q1011  
EGJJ 231820Z 09011KT CAVOK 22/17 Q1011  
EGJJ 231750Z 08012KT CAVOK 22/18 Q1011  
EGJJ 231720Z 09012KT CAVOK 22/17 Q1011  
EGJJ 231650Z 08013KT CAVOK 22/17 Q1011  
EGJJ 231620Z 07011KT CAVOK 22/17 Q1011  
EGJJ 231550Z 08011KT CAVOK 23/17 Q1012  
EGJJ 231520Z 07009KT CAVOK 22/17 Q1012  
EGJJ 231450Z 07009KT CAVOK 22/17 Q1012  
EGJJ 231420Z 06009KT CAVOK 21/17 Q1012  
EGJJ 231320Z 09008KT CAVOK 22/16 Q1013  
EGJJ 231250Z 10007KT 060V120 CAVOK 23/16 Q1013  
EGJJ 231220Z 09007KT 9999 FEW028 22/17 Q1013
EGJJ 231150Z 09007KT 9999 FEW028 21/17 Q1013
EGJJ 231120Z 08010KT CAVOK 20/16 Q1013  
EGJJ 231050Z 09009KT CAVOK 20/16 Q1013  
EGJJ 231020Z 10009KT CAVOK 21/16 Q1013  
EGJJ 230950Z 12010KT CAVOK 20/15 Q1014  
EGJJ 230920Z 10008KT CAVOK 20/15 Q1014  
EGJJ 230850Z 11010KT CAVOK 19/15 Q1014